createdAt,value
2023-02-05T00:00:52.825Z,-1.18
2023-02-05T00:03:21.052Z,-1.20
2023-02-05T00:05:48.901Z,-1.11
2023-02-05T00:08:16.762Z,-1.11
2023-02-05T00:10:45.006Z,-0.95
2023-02-05T00:13:12.824Z,-1.19
2023-02-05T00:15:41.138Z,-0.91
2023-02-05T00:18:09.380Z,-1.16
2023-02-05T00:20:37.269Z,-1.09
2023-02-05T00:23:05.219Z,-1.10
2023-02-05T00:25:33.928Z,-1.37
2023-02-05T00:28:02.249Z,-1.42
2023-02-05T00:30:30.301Z,-1.39
2023-02-05T00:32:58.595Z,-1.09
2023-02-05T00:35:26.422Z,-1.29
2023-02-05T00:37:54.238Z,-1.34
2023-02-05T00:40:22.490Z,-1.42
2023-02-05T00:42:50.335Z,-1.35
2023-02-05T00:45:18.225Z,-1.55
2023-02-05T00:47:46.623Z,-1.29
2023-02-05T00:50:14.478Z,-1.25
2023-02-05T00:52:42.433Z,-1.50
2023-02-05T00:55:11.136Z,-1.29
2023-02-05T00:57:39.027Z,-1.35
2023-02-05T01:00:07.332Z,-1.37
2023-02-05T01:02:35.668Z,-1.10
2023-02-05T01:05:03.765Z,-1.24
2023-02-05T01:07:31.770Z,-1.22
2023-02-05T01:10:00.943Z,-1.16
2023-02-05T01:12:28.834Z,-1.44
2023-02-05T01:14:57.292Z,-1.25
2023-02-05T01:17:25.649Z,-1.27
2023-02-05T01:19:53.714Z,-1.20
2023-02-05T01:22:21.721Z,-1.40
2023-02-05T01:24:51.055Z,-1.28
2023-02-05T01:27:19.050Z,-1.52
2023-02-05T01:29:47.035Z,-1.09
2023-02-05T01:32:16.358Z,-1.23
2023-02-05T01:34:44.788Z,-1.42
2023-02-05T01:37:13.259Z,-1.39
2023-02-05T01:39:43.018Z,-1.28
2023-02-05T01:42:42.010Z,-1.30
2023-02-05T01:45:23.647Z,-1.40
2023-02-05T01:47:59.530Z,-1.67
2023-02-05T01:50:40.445Z,-1.31
2023-02-05T01:53:17.421Z,-1.54
2023-02-05T01:56:00.097Z,-1.50
2023-02-05T01:58:31.813Z,-1.42
2023-02-05T02:01:00.576Z,-1.62
2023-02-05T02:03:30.805Z,-1.39
2023-02-05T02:05:58.734Z,-1.29
2023-02-05T02:08:27.016Z,-1.05
2023-02-05T02:10:56.544Z,-1.05
2023-02-05T02:13:25.634Z,-1.31
2023-02-05T02:15:54.359Z,-1.42
2023-02-05T02:18:28.583Z,-1.38
2023-02-05T02:21:08.756Z,-1.37
2023-02-05T02:23:48.688Z,-1.59
2023-02-05T02:26:43.932Z,-1.56
2023-02-05T02:29:18.542Z,-1.44
2023-02-05T02:32:11.113Z,-1.20
2023-02-05T02:34:46.776Z,-1.23
2023-02-05T02:37:22.151Z,-1.49
2023-02-05T02:40:01.108Z,-1.23
2023-02-05T02:42:41.879Z,-1.20
2023-02-05T02:45:11.907Z,-1.07
2023-02-05T02:47:48.110Z,-1.23
2023-02-05T02:50:22.556Z,-1.31
2023-02-05T02:52:51.752Z,-1.33
2023-02-05T02:55:20.534Z,-1.27
2023-02-05T02:57:49.530Z,-1.47
2023-02-05T03:00:25.276Z,-1.56
2023-02-05T03:02:58.264Z,-1.37
2023-02-05T03:05:27.407Z,-1.50
2023-02-05T03:08:02.744Z,-1.38
2023-02-05T03:10:48.667Z,-1.16
2023-02-05T03:13:16.869Z,-1.20
2023-02-05T03:15:46.609Z,-1.52
2023-02-05T03:18:16.453Z,-1.34
2023-02-05T03:20:57.052Z,-1.44
2023-02-05T03:23:27.285Z,-1.40
2023-02-05T03:25:55.331Z,-1.48
2023-02-05T03:28:23.856Z,-1.29
2023-02-05T03:31:00.278Z,-1.33
2023-02-05T03:33:42.586Z,-1.35
2023-02-05T03:36:26.945Z,-1.74
2023-02-05T03:39:07.469Z,-1.78
2023-02-05T03:41:57.220Z,-1.43
2023-02-05T03:44:59.556Z,-1.57
2023-02-05T03:47:39.110Z,-1.62
2023-02-05T03:50:16.233Z,-1.74
2023-02-05T03:52:50.795Z,-1.67
2023-02-05T03:55:22.340Z,-1.61
2023-02-05T03:58:07.870Z,-1.79
2023-02-05T04:00:37.003Z,-2.13
2023-02-05T04:03:05.296Z,-1.41
2023-02-05T04:05:33.626Z,-1.57
2023-02-05T04:08:02.421Z,-1.88
2023-02-05T04:10:31.955Z,-1.86
2023-02-05T04:13:00.433Z,-1.50
2023-02-05T04:15:28.950Z,-1.35
2023-02-05T04:18:00.333Z,-1.39
2023-02-05T04:20:28.477Z,-1.54
2023-02-05T04:22:56.554Z,-1.53
2023-02-05T04:25:25.320Z,-1.44
2023-02-05T04:27:54.553Z,-1.41
2023-02-05T04:30:22.797Z,-1.54
2023-02-05T04:32:51.344Z,-1.50
2023-02-05T04:35:19.200Z,-1.65
2023-02-05T04:37:48.132Z,-1.48
2023-02-05T04:40:17.160Z,-1.25
2023-02-05T04:42:45.529Z,-1.45
2023-02-05T04:45:13.673Z,-1.50
2023-02-05T04:47:42.119Z,-1.51
2023-02-05T04:50:10.195Z,-1.60
2023-02-05T04:52:38.028Z,-1.63
2023-02-05T04:55:06.838Z,-1.49
2023-02-05T04:57:34.785Z,-1.54
2023-02-05T05:00:03.524Z,-1.48
2023-02-05T05:02:32.272Z,-1.41
2023-02-05T05:05:00.228Z,-1.68
2023-02-05T05:07:31.175Z,-1.54
2023-02-05T05:09:59.348Z,-1.49
2023-02-05T05:12:27.176Z,-1.29
2023-02-05T05:14:54.969Z,-1.69
2023-02-05T05:17:23.099Z,-1.77
2023-02-05T05:19:50.968Z,-2.19
2023-02-05T05:22:18.932Z,-1.76
2023-02-05T05:24:47.171Z,-1.78
2023-02-05T05:27:15.125Z,-1.86
2023-02-05T05:29:43.637Z,-1.49
2023-02-05T05:32:12.008Z,-1.77
2023-02-05T05:34:40.079Z,-1.96
2023-02-05T05:37:07.983Z,-1.78
2023-02-05T05:39:54.647Z,-1.86
2023-02-05T05:42:41.634Z,-1.65
2023-02-05T05:45:09.891Z,-2.34
2023-02-05T05:47:38.127Z,-1.64
2023-02-05T05:50:06.467Z,-2.11
2023-02-05T05:52:34.925Z,-1.89
2023-02-05T05:55:03.137Z,-1.81
2023-02-05T05:57:31.283Z,-1.75
2023-02-05T05:59:59.633Z,-1.56
2023-02-05T06:02:27.559Z,-1.82
2023-02-05T06:04:55.816Z,-1.90
2023-02-05T06:07:23.599Z,-1.33
2023-02-05T06:09:51.472Z,-1.89
2023-02-05T06:12:19.654Z,-1.81
2023-02-05T06:14:47.394Z,-1.83
2023-02-05T06:17:15.243Z,-1.70
2023-02-05T06:19:43.363Z,-1.37
2023-02-05T06:22:11.229Z,-1.66
2023-02-05T06:24:39.034Z,-1.34
2023-02-05T06:27:07.279Z,-1.78
2023-02-05T06:29:35.281Z,-1.38
2023-02-05T06:32:03.267Z,-1.80
2023-02-05T06:34:31.764Z,-1.12
2023-02-05T06:36:59.744Z,-0.96
2023-02-05T06:39:27.806Z,-1.12
2023-02-05T06:41:56.026Z,-1.63
2023-02-05T06:44:24.529Z,-1.43
2023-02-05T06:46:52.392Z,-1.41
2023-02-05T06:49:20.852Z,-1.70
2023-02-05T06:51:48.668Z,-1.43
2023-02-05T06:54:16.588Z,-1.34
2023-02-05T06:56:44.999Z,-1.68
2023-02-05T06:59:12.809Z,-1.37
2023-02-05T07:01:40.817Z,-1.34
2023-02-05T07:04:09.153Z,-1.57
2023-02-05T07:06:37.028Z,-1.56
2023-02-05T07:09:04.987Z,-1.17
2023-02-05T07:11:33.340Z,-0.96
2023-02-05T07:14:02.470Z,-1.12
2023-02-05T07:16:31.077Z,-0.90
2023-02-05T07:18:59.350Z,-0.74
2023-02-05T07:21:27.291Z,-0.86
2023-02-05T07:23:55.082Z,-0.89
2023-02-05T07:26:24.120Z,-1.41
2023-02-05T07:28:51.996Z,-0.64
2023-02-05T07:31:20.585Z,0.10
2023-02-05T07:33:49.146Z,0.91
2023-02-05T07:36:18.402Z,0.46
2023-02-05T07:38:47.407Z,1.49
2023-02-05T07:41:16.444Z,0.47
2023-02-05T07:43:44.634Z,1.34
2023-02-05T07:46:14.603Z,1.74
2023-02-05T07:48:42.863Z,1.84
2023-02-05T07:51:19.949Z,2.65
2023-02-05T07:53:48.353Z,1.72
2023-02-05T07:56:17.154Z,1.82
2023-02-05T07:58:45.123Z,2.04
2023-02-05T08:01:13.393Z,2.02
2023-02-05T08:03:41.618Z,1.73
2023-02-05T08:06:14.082Z,1.79
2023-02-05T08:08:42.553Z,1.66
2023-02-05T08:11:15.106Z,1.60
2023-02-05T08:13:44.101Z,1.69
2023-02-05T08:16:12.820Z,1.76
2023-02-05T08:18:40.678Z,1.80
2023-02-05T08:21:08.939Z,2.33
2023-02-05T08:23:36.861Z,2.42
2023-02-05T08:26:04.974Z,2.15
2023-02-05T08:28:33.225Z,2.84
2023-02-05T08:31:01.558Z,2.75
2023-02-05T08:33:29.608Z,3.04
2023-02-05T08:35:58.649Z,3.46
2023-02-05T08:38:26.528Z,3.60
2023-02-05T08:40:54.514Z,3.98
2023-02-05T08:43:22.831Z,3.40
2023-02-05T08:45:50.734Z,3.51
2023-02-05T08:48:18.628Z,3.39
2023-02-05T08:50:47.492Z,3.06
2023-02-05T08:53:15.414Z,3.09
2023-02-05T08:55:43.417Z,3.32
2023-02-05T08:58:11.680Z,3.79
2023-02-05T09:00:40.358Z,4.33
2023-02-05T09:03:08.955Z,5.59
2023-02-05T09:05:39.295Z,4.85
2023-02-05T09:08:07.205Z,4.74
2023-02-05T09:10:35.422Z,3.71
2023-02-05T09:13:04.100Z,3.60
2023-02-05T09:15:32.207Z,2.37
2023-02-05T09:18:00.172Z,1.80
2023-02-05T09:20:28.418Z,1.90
2023-02-05T09:22:56.243Z,1.57
2023-02-05T09:25:24.117Z,1.67
2023-02-05T09:27:52.382Z,1.13
2023-02-05T09:30:20.410Z,1.29
2023-02-05T09:32:48.266Z,1.88
2023-02-05T09:35:16.527Z,1.85
2023-02-05T09:37:44.380Z,1.41
2023-02-05T09:40:23.872Z,1.56
2023-02-05T09:43:21.977Z,1.84
2023-02-05T09:45:56.969Z,1.98
2023-02-05T09:48:57.213Z,2.77
2023-02-05T09:51:34.968Z,2.21
2023-02-05T09:54:14.171Z,1.77
2023-02-05T09:56:44.018Z,1.68
2023-02-05T09:59:21.909Z,1.73
2023-02-05T10:02:00.370Z,1.83
2023-02-05T10:04:29.315Z,1.57
2023-02-05T10:07:32.646Z,2.44
2023-02-05T10:10:18.426Z,2.83
2023-02-05T10:13:12.715Z,4.89
2023-02-05T10:15:49.962Z,6.11
2023-02-05T10:18:41.653Z,6.67
2023-02-05T10:21:21.978Z,5.37
2023-02-05T10:24:17.234Z,5.65
2023-02-05T10:26:54.205Z,5.11
2023-02-05T10:29:40.676Z,5.26
2023-02-05T10:32:24.832Z,7.31
2023-02-05T10:35:28.057Z,7.21
2023-02-05T10:37:57.844Z,6.25
2023-02-05T10:40:29.428Z,5.27
2023-02-05T10:43:04.319Z,4.24
2023-02-05T10:45:32.267Z,3.23
2023-02-05T10:48:32.780Z,3.69
2023-02-05T10:51:14.174Z,3.05
2023-02-05T10:53:42.930Z,2.84
2023-02-05T10:56:16.971Z,2.72
2023-02-05T10:58:55.047Z,2.83
2023-02-05T11:01:25.711Z,2.75
2023-02-05T11:03:58.475Z,2.07
2023-02-05T11:06:29.297Z,2.42
2023-02-05T11:08:57.847Z,2.06
2023-02-05T11:11:30.469Z,2.01
2023-02-05T11:14:05.237Z,1.84
2023-02-05T11:16:39.161Z,1.89
2023-02-05T11:19:18.317Z,1.61
2023-02-05T11:21:55.116Z,2.22
2023-02-05T11:24:39.645Z,2.00
2023-02-05T11:27:16.783Z,1.61
2023-02-05T11:29:44.979Z,2.55
2023-02-05T11:32:32.784Z,3.06
2023-02-05T11:35:20.943Z,4.49
2023-02-05T11:38:01.942Z,5.90
2023-02-05T11:40:32.570Z,6.99
2023-02-05T11:43:30.169Z,8.29
2023-02-05T11:46:00.000Z,8.98
2023-02-05T11:48:53.865Z,9.27
2023-02-05T11:51:36.517Z,8.23
2023-02-05T11:54:12.201Z,6.25
2023-02-05T11:56:40.391Z,4.37
2023-02-05T11:59:23.722Z,4.34
2023-02-05T12:01:51.955Z,6.26
2023-02-05T12:04:21.732Z,7.91
2023-02-05T12:06:55.291Z,8.12
2023-02-05T12:09:27.724Z,7.50
2023-02-05T12:12:36.762Z,8.25
2023-02-05T12:15:23.915Z,8.94
2023-02-05T12:18:00.408Z,7.98
2023-02-05T12:20:39.304Z,5.44
2023-02-05T12:23:28.685Z,6.58
2023-02-05T12:26:15.789Z,6.70
2023-02-05T12:28:59.414Z,6.92
2023-02-05T12:31:50.159Z,6.56
2023-02-05T12:34:27.921Z,5.71
2023-02-05T12:37:11.688Z,5.08
2023-02-05T12:40:15.392Z,5.20
2023-02-05T12:43:02.202Z,4.82
2023-02-05T12:46:01.229Z,5.15
2023-02-05T12:48:48.384Z,4.65
2023-02-05T12:51:27.625Z,5.15
2023-02-05T12:54:17.982Z,4.45
2023-02-05T12:56:59.927Z,4.33
2023-02-05T12:59:49.857Z,4.71
2023-02-05T13:02:31.817Z,4.65
2023-02-05T13:05:37.015Z,4.27
2023-02-05T13:08:18.866Z,4.41
2023-02-05T13:11:03.984Z,4.14
2023-02-05T13:13:49.396Z,4.26
2023-02-05T13:16:19.053Z,3.75
2023-02-05T13:19:11.397Z,4.01
2023-02-05T13:21:58.042Z,4.35
2023-02-05T13:24:49.454Z,4.03
2023-02-05T13:27:47.481Z,4.03
2023-02-05T13:30:44.736Z,4.18
2023-02-05T13:33:13.049Z,3.97
2023-02-05T13:35:50.696Z,3.75
2023-02-05T13:38:21.862Z,3.94
2023-02-05T13:41:18.450Z,3.49
2023-02-05T13:43:55.800Z,3.70
2023-02-05T13:46:43.279Z,4.08
2023-02-05T13:49:11.376Z,3.84
2023-02-05T13:51:54.805Z,3.57
2023-02-05T13:54:38.120Z,4.04
2023-02-05T13:57:34.370Z,3.33
2023-02-05T14:00:04.403Z,3.18
2023-02-05T14:02:51.112Z,3.18
2023-02-05T14:05:38.139Z,3.21
2023-02-05T14:08:06.748Z,3.61
2023-02-05T14:10:42.647Z,3.25
2023-02-05T14:13:37.038Z,3.19
2023-02-05T14:16:24.049Z,2.91
2023-02-05T14:19:00.775Z,2.97
2023-02-05T14:21:31.663Z,2.84
2023-02-05T14:24:22.268Z,2.59
2023-02-05T14:26:56.791Z,2.47
2023-02-05T14:29:44.317Z,2.64
2023-02-05T14:32:24.857Z,2.50
2023-02-05T14:35:02.480Z,2.12
2023-02-05T14:37:41.568Z,2.13
2023-02-05T14:40:20.491Z,1.88
2023-02-05T14:42:50.860Z,2.23
2023-02-05T14:45:21.760Z,1.93
2023-02-05T14:47:50.402Z,1.28
2023-02-05T14:50:29.255Z,1.84
2023-02-05T14:53:01.130Z,1.03
2023-02-05T14:55:42.445Z,0.98
2023-02-05T14:58:46.189Z,1.29
2023-02-05T15:01:33.239Z,0.94
2023-02-05T15:04:03.162Z,1.41
2023-02-05T15:06:40.541Z,1.14
2023-02-05T15:09:20.934Z,1.21
2023-02-05T15:12:12.497Z,0.82
2023-02-05T15:14:51.542Z,1.09
2023-02-05T15:17:35.890Z,0.46
2023-02-05T15:20:18.020Z,0.75
2023-02-05T15:23:10.052Z,1.00
2023-02-05T15:25:58.438Z,1.12
2023-02-05T15:28:33.066Z,0.30
2023-02-05T15:31:24.440Z,0.23
2023-02-05T15:34:41.659Z,0.37
2023-02-05T15:37:09.817Z,0.09
2023-02-05T15:40:05.406Z,0.34
2023-02-05T15:42:38.333Z,0.21
2023-02-05T15:45:24.842Z,0.07
2023-02-05T15:48:23.882Z,0.03
2023-02-05T15:50:58.725Z,-0.16
2023-02-05T15:53:35.940Z,0.18
2023-02-05T15:56:32.018Z,0.41
2023-02-05T15:59:10.700Z,0.52
2023-02-05T16:01:48.199Z,0.44
2023-02-05T16:04:18.795Z,-0.16
2023-02-05T16:06:46.732Z,0.13
2023-02-05T16:09:24.382Z,-0.23
2023-02-05T16:11:54.313Z,-0.15
2023-02-05T16:14:24.463Z,-0.37
2023-02-05T16:17:16.045Z,-0.49
2023-02-05T16:19:50.707Z,-0.66
2023-02-05T16:22:18.946Z,-0.13
2023-02-05T16:24:49.171Z,-0.69
2023-02-05T16:27:29.824Z,0.10
2023-02-05T16:30:02.173Z,-0.04
2023-02-05T16:32:48.632Z,-0.44
2023-02-05T16:35:38.048Z,-0.22
2023-02-05T16:38:09.416Z,-0.42
2023-02-05T16:40:43.625Z,-0.58
2023-02-05T16:43:37.241Z,-0.50
2023-02-05T16:46:08.490Z,-0.55
2023-02-05T16:48:41.922Z,-0.56
2023-02-05T16:51:31.867Z,0.15
2023-02-05T16:54:02.513Z,-0.11
2023-02-05T16:56:36.105Z,0.38
2023-02-05T16:59:05.145Z,0.22
2023-02-05T17:01:39.639Z,-0.01
2023-02-05T17:04:07.946Z,0.18
2023-02-05T17:06:38.166Z,0.12
2023-02-05T17:09:06.508Z,-0.68
2023-02-05T17:11:39.646Z,-0.47
2023-02-05T17:14:31.699Z,-0.47
2023-02-05T17:17:02.675Z,-0.11
2023-02-05T17:19:32.659Z,-0.51
2023-02-05T17:22:15.880Z,-0.36
2023-02-05T17:24:49.423Z,-0.42
2023-02-05T17:27:20.288Z,0.15
2023-02-05T17:29:48.549Z,-0.41
2023-02-05T17:32:18.679Z,-0.80
2023-02-05T17:34:46.911Z,-0.72
2023-02-05T17:37:15.581Z,-0.90
2023-02-05T17:39:43.564Z,-0.42
2023-02-05T17:42:31.450Z,-0.39
2023-02-05T17:44:59.726Z,-0.44
2023-02-05T17:47:27.600Z,-0.63
2023-02-05T17:49:55.651Z,-0.61
2023-02-05T17:52:25.140Z,-0.58
2023-02-05T17:54:54.635Z,-0.45
2023-02-05T17:57:23.898Z,-0.63
2023-02-05T17:59:53.280Z,-0.62
2023-02-05T18:02:21.557Z,-0.58
2023-02-05T18:04:50.391Z,-0.49
2023-02-05T18:07:40.652Z,-0.84
2023-02-05T18:10:14.256Z,-0.72
2023-02-05T18:12:42.776Z,-0.69
2023-02-05T18:15:13.275Z,-0.98
2023-02-05T18:17:42.067Z,-0.58
2023-02-05T18:20:16.803Z,-0.61
2023-02-05T18:22:44.740Z,-0.84
2023-02-05T18:25:13.123Z,-0.80
2023-02-05T18:27:42.267Z,-0.86
2023-02-05T18:30:10.791Z,-0.70
2023-02-05T18:32:39.053Z,-1.00
2023-02-05T18:35:09.349Z,-1.05
2023-02-05T18:37:37.475Z,-0.64
2023-02-05T18:40:06.191Z,-0.58
2023-02-05T18:42:34.574Z,-0.42
2023-02-05T18:45:03.003Z,-0.78
2023-02-05T18:47:31.393Z,-0.55
2023-02-05T18:49:59.429Z,-0.47
2023-02-05T18:52:30.166Z,-0.52
2023-02-05T18:54:58.460Z,-0.47
2023-02-05T18:57:26.558Z,-1.07
2023-02-05T18:59:54.470Z,-0.77
2023-02-05T19:02:22.717Z,-1.13
2023-02-05T19:04:55.952Z,-1.09
2023-02-05T19:07:25.036Z,-1.10
2023-02-05T19:09:56.359Z,-1.16
2023-02-05T19:12:24.645Z,-1.61
2023-02-05T19:14:52.521Z,-1.47
2023-02-05T19:17:20.738Z,-1.63
2023-02-05T19:19:49.982Z,-0.75
2023-02-05T19:22:18.122Z,-1.44
2023-02-05T19:24:46.434Z,-1.77
2023-02-05T19:27:16.149Z,-2.18
2023-02-05T19:29:46.812Z,-1.86
2023-02-05T19:32:14.999Z,-1.56
2023-02-05T19:34:43.469Z,-1.34
2023-02-05T19:37:12.402Z,-1.86
2023-02-05T19:39:40.856Z,-1.98
2023-02-05T19:42:08.984Z,-1.94
2023-02-05T19:44:36.986Z,-2.26
2023-02-05T19:47:05.413Z,-2.68
2023-02-05T19:49:33.401Z,-2.44
2023-02-05T19:52:01.620Z,-2.37
2023-02-05T19:54:30.653Z,-2.62
2023-02-05T19:56:58.651Z,-2.66
2023-02-05T19:59:26.587Z,-2.89
2023-02-05T20:01:55.042Z,-2.70
2023-02-05T20:04:25.757Z,-2.83
2023-02-05T20:06:58.688Z,-2.93
2023-02-05T20:09:27.655Z,-3.18
2023-02-05T20:11:55.913Z,-3.27
2023-02-05T20:14:24.298Z,-3.55
2023-02-05T20:16:52.872Z,-3.98
2023-02-05T20:19:21.232Z,-3.70
2023-02-05T20:21:49.484Z,-3.40
2023-02-05T20:24:17.922Z,-3.44
2023-02-05T20:26:48.624Z,-4.15
2023-02-05T20:29:35.781Z,-4.10
2023-02-05T20:32:04.613Z,-4.01
2023-02-05T20:34:35.866Z,-4.08
2023-02-05T20:37:07.048Z,-3.70
2023-02-05T20:39:35.517Z,-4.39
2023-02-05T20:42:03.868Z,-4.31
2023-02-05T20:44:34.013Z,-3.37
2023-02-05T20:47:06.002Z,-3.49
2023-02-05T20:49:35.864Z,-4.19
2023-02-05T20:52:04.858Z,-4.02
2023-02-05T20:54:33.057Z,-4.06
2023-02-05T20:57:01.420Z,-3.81
2023-02-05T20:59:32.693Z,-3.88
2023-02-05T21:02:01.190Z,-4.13
2023-02-05T21:04:29.797Z,-4.04
2023-02-05T21:06:58.591Z,-4.09
2023-02-05T21:09:26.475Z,-4.20
2023-02-05T21:11:55.755Z,-4.66
2023-02-05T21:14:23.908Z,-4.76
2023-02-05T21:16:52.393Z,-4.80
2023-02-05T21:19:20.760Z,-4.05
2023-02-05T21:21:50.084Z,-4.44
2023-02-05T21:24:18.859Z,-4.24
2023-02-05T21:26:49.289Z,-4.43
2023-02-05T21:29:19.813Z,-3.84
2023-02-05T21:31:57.163Z,-3.93
2023-02-05T21:34:27.449Z,-4.11
2023-02-05T21:36:56.237Z,-4.57
2023-02-05T21:39:25.999Z,-4.41
2023-02-05T21:41:54.502Z,-4.32
2023-02-05T21:44:23.678Z,-4.05
2023-02-05T21:46:53.922Z,-4.43
2023-02-05T21:49:22.331Z,-4.96
2023-02-05T21:51:53.374Z,-5.36
2023-02-05T21:54:25.338Z,-5.25
2023-02-05T21:56:54.159Z,-5.69
2023-02-05T21:59:22.374Z,-4.18
2023-02-05T22:01:50.647Z,-3.73
2023-02-05T22:04:20.500Z,-4.04
2023-02-05T22:06:48.492Z,-3.80
2023-02-05T22:09:17.062Z,-3.73
2023-02-05T22:11:45.778Z,-4.03
2023-02-05T22:14:13.881Z,-4.11
2023-02-05T22:16:41.883Z,-4.30
2023-02-05T22:19:10.404Z,-4.46
2023-02-05T22:21:41.166Z,-4.35
2023-02-05T22:24:13.467Z,-4.52
2023-02-05T22:26:42.370Z,-4.78
2023-02-05T22:29:15.799Z,-4.84
2023-02-05T22:31:46.938Z,-4.97
2023-02-05T22:34:14.983Z,-5.09
2023-02-05T22:36:43.658Z,-5.15
2023-02-05T22:39:11.659Z,-5.29
2023-02-05T22:41:41.871Z,-5.41
2023-02-05T22:44:12.505Z,-5.47
2023-02-05T22:46:44.423Z,-5.69
2023-02-05T22:49:15.497Z,-5.66
2023-02-05T22:51:43.844Z,-5.68
2023-02-05T22:54:13.806Z,-6.18
2023-02-05T22:56:41.940Z,-5.89
2023-02-05T22:59:09.874Z,-5.71
2023-02-05T23:01:39.334Z,-5.94
2023-02-05T23:04:08.716Z,-5.92
2023-02-05T23:06:43.321Z,-5.88
2023-02-05T23:09:16.847Z,-5.95
2023-02-05T23:11:44.918Z,-6.63
2023-02-05T23:14:14.633Z,-6.56
2023-02-05T23:16:43.983Z,-6.35
2023-02-05T23:19:16.506Z,-6.75
2023-02-05T23:21:45.080Z,-6.02
2023-02-05T23:24:13.503Z,-5.86
2023-02-05T23:26:44.437Z,-5.82
2023-02-05T23:29:14.884Z,-6.07
2023-02-05T23:31:43.093Z,-5.68
2023-02-05T23:34:11.662Z,-6.37
2023-02-05T23:36:40.056Z,-6.56
2023-02-05T23:39:07.981Z,-6.27
2023-02-05T23:41:36.394Z,-5.96
2023-02-05T23:44:10.721Z,-6.23
2023-02-05T23:46:40.359Z,-6.00
2023-02-05T23:49:09.458Z,-6.06
2023-02-05T23:51:38.426Z,-5.84
2023-02-05T23:54:07.461Z,-5.69
2023-02-05T23:56:35.837Z,-5.87
2023-02-05T23:59:04.961Z,-6.78
